Rarotonga (NCRG)

Aerodrome — Elev 19
Cook Islands
S021.12.09.860 W159.48.20.000
Loading chart...

Current Weather

NCRG 210100Z 21013KT 9999 VCSH SCT016 BKN040 25/19 Q1011 RMK RESHRA

Published 27 minutes ago

Airport Activity

Loading chart...
Loading chart...

Positions

CallsignRadio Name / Freq / Voice Room / TypeFrequencyVoice RoomType
NZZO_FSS Auckland Radio
128.900
nzzo_fss
128.900nzzo_fss
NSFA_CTR Faleolo Control
123.800
nsfa_ctr
123.800nsfa_ctr
NCRG_APP Rarotonga Control
118.100
ncrg_app
118.100ncrg_app
UNICOM NZZO UNICOM
122.800
unicom_nzzo
122.800unicom_nzzo